AirNav   ATP
 
 982 users online  

I19 Greene County-Lewis A Jackson Regional Airport
Dayton, Ohio, USA

GOING TO DAYTON?


FAA INFORMATION EFFECTIVE 06 DECEMBER 2018

Location

FAA Identifier: I19
Lat/Long: 39-41-26.6000N / 083-59-34.0000W
39-41.443333N / 083-59.566667W
39.6907222 / -83.9927778
(estimated)
Elevation: 948.5 ft. / 289.1 m (surveyed)
Variation: 05W (1995)
From city: 10 miles E of DAYTON, OH
Time zone: UTC -5 (UTC -4 during Daylight Saving Time)
Zip code: 45385

Airport Operations

Airport use: Open to the public
Activation date: 10/1968
Control tower: no
ARTCC: INDIANAPOLIS CENTER
FSS: DAYTON FLIGHT SERVICE STATION
NOTAMs facility: DAY (NOTAM-D service available)
Attendance: NOV MAR 0800-1800, APR-OCT 0800-2000
UNATNDD CHRISTMAS, NEW YEARS & THANKSGIVING DAYS.
Wind indicator: lighted
Segmented circle: no
Lights: ACTVT LIRL RY 07/25 PAPI RY 07/25 & REIL RYS 07 & 25 - CTAF.
Beacon: white-green (lighted land airport)
Operates sunset to sunrise.

Airport Communications

CTAF/UNICOM: 122.7
WX AWOS-3: 118.525 (937-372-4668)
COLUMBUS APPROACH: 118.85
COLUMBUS DEPARTURE: 118.85
CLASS C: 118.85
IC: 118.85
WX AWOS-3PT at SGH (11 nm NE): 134.975
WX ASOS at MGY (12 nm SW): 118.375 (937-885-2171)
WX AWOS-3 at I66 (13 nm SE): 124.175 (937-382-1376)
WX ASOS at DAY (16 nm NW): PHONE 937-415-6819
WX AWOS-3 at I68 (18 nm SW): 120.55 (513-934-5500)
WX ASOS at ILN (18 nm SE): PHONE 937-383-7334

Nearby radio navigation aids

VOR radial/distance  VOR name  Freq  Var
SGHr222/11.1SPRINGFIELD VOR/DME113.2004W
MXQr335/18.0MIDWEST VOR/DME112.9004W
DQNr137/27.0DAYTON VOR/DME114.5001W
RODr181/35.9ROSEWOOD VORTAC117.5005W
RIDr099/39.2RICHMOND VORTAC110.6003W

 
NDB name  Hdg/Dist  Freq  Var  ID
CLARK COUNTY226/14.734104WCCJ -.-. -.-. .---
HOOK FIELD065/24.023904WHKF .... -.- ..-.
COURT HOUSE287/28.341406WCSS -.-. ... ...
MADEIRA035/32.737904WMDE -- -.. .
CINCINNATI031/35.733504WLUK .-.. ..- -.-
HILLSBORO331/36.827805WHOC .... --- -.-.
SPORTYS020/38.324504WPWF .--. .-- ..-.

Airport Services

Fuel available: 100LL JET-A+
FUEL AVBL 24 HRS WITH CREDIT CARD CTC FBO - (937) 347-1302.
Parking: hangars and tiedowns
Airframe service: MAJOR
Powerplant service: MAJOR

Runway Information

Runway 7/25

Dimensions: 5003 x 75 ft. / 1525 x 23 m
Surface: asphalt, in excellent condition
Weight bearing capacity: 
Single wheel: 30.0
Runway edge lights: low intensity
Gradient: EAST
RUNWAY 7  RUNWAY 25
Latitude: 39-41.256367N39-41.629478N
Longitude: 084-00.042652W083-59.091673W
Elevation: 909.6 ft.948.5 ft.
Gradient: 0.779% UP0.779% DOWN
Traffic pattern: leftleft
Runway heading: 068 magnetic, 063 true248 magnetic, 243 true
Markings: nonprecision, in good conditionnonprecision, in good condition
Visual slope indicator: 2-light PAPI on left (3.50 degrees glide path)2-light PAPI on left (3.50 degrees glide path)
Runway end identifier lights: yesyes
Touchdown point: yes, no lightsyes, no lights
Obstructions: 16 ft. trees, 565 ft. from runway, 100 ft. right of centerline, 22:1 slope to clearnone
+10' TREES AND BRUSH, 0'-199' FM RY END, 195'-250' R OF CNTRLN.

Airport Ownership and Management from official FAA records

Ownership: Publicly-owned
Owner: GREENE COUNTY REGNL ARPT AUTH
140 N VALLEY RD,
XENIA, OH 45385
Phone 937-376-8107
Manager: DAVE KUSHNER
140 N VALLEY RD,
XENIA, OH 45385
Phone 937-376-8107

Airport Operational Statistics

Aircraft based on the field: 69
Single engine airplanes: 60
Multi engine airplanes: 8
Helicopters: 1
    
Aircraft operations: avg 117/day *
91% local general aviation
9% transient general aviation
* for 12-month period ending 22 September 2018

Additional Remarks

BIRDS & DEER ON & INVOF ARPT.
COLUMBUS APCH CTL TEL# 614-338-8537.
EXTENSIVE FLIGHT TRAINING ACT.

Instrument Procedures

NOTE: All procedures below are presented as PDF files. If you need a reader for these files, you should download the free Adobe Reader.

NOT FOR NAVIGATION. Please procure official charts for flight.
FAA instrument procedures published for use from 6 December 2018 at 0901Z to 3 January 2019 at 0900Z.

 
IAPs - Instrument Approach Procedures
RNAV (GPS) RWY 07   download (184KB)
RNAV (GPS) RWY 25   download (196KB)
NOTE: Special Take-Off Minimums/Departure Procedures apply   download (232KB)

Other nearby airports with instrument procedures:

KFFO - Wright-Patterson Air Force Base (8 nm N)
KSGH - Springfield-Beckley Municipal Airport (11 nm NE)
KMGY - Dayton-Wright Brothers Airport (12 nm SW)
I66 - Clinton Field Airport (13 nm SE)
KDAY - James M Cox Dayton International Airport (16 nm NW)
I68 - Warren County Airport/John Lane Field (18 nm SW)
KILN - Wilmington Air Park (18 nm SE)
 
Loc | Ops | Rwys | IFR | FBO | Links
Com | Nav | Svcs | Stats | Notes


 
Area around I19 (Greene County-Lewis A Jackson Regional Airport)
 
Road maps at: MapQuest Bing Google
 
Aerial photo
WARNING: Photo may not be current or correct
Aerial photo of I19 (Greene County-Lewis A Jackson Regional Airport)
Photo by Anthony Springer
Photo taken 13-Jun-2018
looking northeast.

Do you have a better or more recent aerial photo of Greene County-Lewis A Jackson Regional Airport that you would like to share? If so, please send us your photo.

 
Sectional chart

 
Airport distance calculator
Flying to Greene County-Lewis A Jackson Regional Airport? Find the distance to fly.

From to I19

Sunrise and sunset
Times for 10-Dec-2018
 Local
(UTC-5)
 Zulu
(UTC)
Morning civil twilight07:1712:17
Sunrise07:4712:47
Sunset17:1122:11
Evening civil twilight17:4122:41

Current date and time
Zulu (UTC)  11-Dec-2018 01:44:14
Local (UTC-5)  10-Dec-2018 20:44:14
 
METAR
KFFO 
8nm N 
110056Z 23005KT 5SM BR OVC011 M05/M08 A3025 RMK AO2A SLP260 T10481077
KSGH 
11nm NE 
110056Z AUTO 27004KT 4SM BR OVC010 M05/M06 A3024 RMK AO2 SLP261 T10501061
KMGY 
12nm SW 
110111Z AUTO 23003KT 5SM HZ OVC009 M04/M07 A3024 RMK AO2 T10441072
KDAY 
16nm NW 
110056Z 30006KT 6SM BR OVC008 M04/M07 A3025 RMK AO2 SLP258 T10441067
KILN 
18nm SE 
110054Z AUTO 30004KT 5SM BR OVC009 M05/M07 A3024 RMK AO2 SLP278 T10501072
KI68 
18nm SW 
110135Z AUTO 00000KT 5SM BR OVC008 M05/M05 A3026 RMK AO1 T10461046
TAF
KFFO 
8nm N 
102004Z 1020/1201 VRB06KT 6000 BR OVC011 620111 QNH3021INS BECMG 1023/1024 VRB06KT 4800 BR BKN018 620181 QNH3018INS BECMG 1108/1109 23009KT 2400 BR SKC QNH3018INS BECMG 1109/1111 23009KT 0800 FZFG VV004 620041 QNH3018INS BECMG 1111/1113 22012KT 3200 BR BKN004 620041 QNH3018INS BECMG 1113/1115 22012KT 4800 BR SCT004 QNH3018INS BECMG 1117/1118 23012G18KT 9999 NSW SKC QNH3011INS BECMG 1120/1121 24009KT 9999 FEW180 QNH3006INS TX00/1117Z TNM06/1108Z
KDAY 
16nm NW 
101945Z 1020/1118 35006KT 5SM BR OVC010 FM102300 30004KT P6SM OVC012 FM110400 24005KT 5SM BR SCT015 FM111300 24012KT P6SM SCT250
KILN 
18nm SE 
101945Z 1020/1118 36006KT 5SM HZ OVC012 FM102300 32004KT P6SM OVC012 FM110400 24004KT 5SM BR SCT015 FM111300 24012KT P6SM SCT250
NOTAMs
Click for the latest NOTAMs
NOTAMs are issued by the DoD/FAA and will open in a separate window not controlled by AirNav.

 

 
 

FBO, Fuel Providers, and Aircraft Ground Support

  
 Business Name 
 
 Contact 
 
 Services / Description 
 
Fuel Prices
 
Comments
  
 MacAir Aviation
937-347-1302
[web site]
[email]
Aviation fuel, Aircraft ground handling, Aircraft parking (ramp or tiedown), Hangars, Hangar leasing / sales, Passenger terminal and lounge, ...
 
Certificated Pilot School   PSI FAA Test Center  
 
More info about MacAir Aviation
EPIC
100LL Jet A
AS $4.89 $3.49 
 Updated 06-Dec-2018
 
   11 read write
AS=Assisted/Self Service
Update Fuel Prices
 

Would you like to see your business listed on this page?

 If your business provides an interesting product or service to pilots, flight crews, aircraft, or users of the Greene County-Lewis A Jackson Regional Airport, you should consider listing it here.  To start the listing process, click on the button below
 
Add a business
 

Other Pages about Greene County-Lewis A Jackson Regional Airport

www.i19airport.com
 
Update a link
 
Copyright © AirNav, LLC. All rights reserved. Privacy Policy  Contact